Time;durP1;ratioP1;P1;durP2;ratioP2;P2;SDS_P1;SDS_P2;PMS_P1;PMS_P2;Temp;Humidity;BMP_temperature;BMP_pressure;BME280_temperature;BME280_humidity;BME280_pressure;Samples;Min_cycle;Max_cycle;Signal;HPM_P1;HPM_P2
2022/06/16 00:00:14;;;;;;;3.73;3.43;;;26.30;50.00;;;;;;6108432;23;20413;-81
2022/06/16 00:02:49;;;;;;;3.57;3.27;;;26.30;50.00;;;;;;6110314;23;20424;-81
2022/06/16 00:05:18;;;;;;;4.20;3.80;;;26.30;49.90;;;;;;6108819;23;20487;-81
2022/06/16 00:07:44;;;;;;;3.50;3.10;;;26.30;50.00;;;;;;6110107;23;20927;-81
2022/06/16 00:10:11;;;;;;;3.20;2.90;;;26.30;50.10;;;;;;6111121;23;20377;-81
2022/06/16 00:12:40;;;;;;;5.83;3.53;;;26.30;50.00;;;;;;6111546;23;20393;-81
2022/06/16 00:15:09;;;;;;;4.40;4.00;;;26.30;49.90;;;;;;6110036;23;20386;-81
2022/06/16 00:17:35;;;;;;;4.00;3.20;;;26.30;49.90;;;;;;6110370;23;20382;-81
2022/06/16 00:20:04;;;;;;;4.40;3.87;;;26.30;49.90;;;;;;6111498;23;20378;-81
2022/06/16 00:22:31;;;;;;;4.03;3.53;;;26.40;50.00;;;;;;6110532;23;20394;-81
2022/06/16 00:24:56;;;;;;;4.67;3.33;;;26.30;49.90;;;;;;6109697;23;20390;-81
2022/06/16 00:27:22;;;;;;;3.70;3.40;;;26.30;49.90;;;;;;6111371;23;20472;-81
2022/06/16 00:29:48;;;;;;;4.57;4.17;;;26.30;49.90;;;;;;6110130;23;20157;-82
2022/06/16 00:32:14;;;;;;;3.97;3.67;;;26.30;49.90;;;;;;6110313;23;20162;-82
2022/06/16 00:34:39;;;;;;;4.87;4.20;;;26.30;50.00;;;;;;6108944;23;20179;-82
2022/06/16 00:37:05;;;;;;;4.00;3.70;;;26.30;50.00;;;;;;6111220;23;20150;-82
2022/06/16 00:39:31;;;;;;;4.10;3.70;;;26.20;49.90;;;;;;6113215;23;20158;-83
2022/06/16 00:42:20;;;;;;;4.60;3.70;;;26.30;50.00;;;;;;6114062;23;20233;-83
2022/06/16 00:44:51;;;;;;;4.23;3.90;;;26.30;49.90;;;;;;6114883;23;20146;-82
2022/06/16 00:47:19;;;;;;;7.90;4.60;;;26.20;49.80;;;;;;6113592;23;20474;-83
2022/06/16 00:49:47;;;;;;;4.20;3.80;;;26.20;49.80;;;;;;6115520;23;20366;-83
2022/06/16 00:52:21;;;;;;;3.80;3.50;;;26.20;49.80;;;;;;6113216;23;20374;-83
2022/06/16 00:55:12;;;;;;;3.83;3.53;;;26.20;49.80;;;;;;6112887;23;20416;-83
2022/06/16 00:57:43;;;;;;;4.57;3.77;;;26.20;49.90;;;;;;6113807;23;20381;-83
2022/06/16 01:00:55;;;;;;;4.27;3.87;;;26.20;49.90;;;;;;6113014;23;20401;-83
2022/06/16 01:03:02;;;;;;;4.27;3.87;;;26.20;49.90;;;;;;6115087;23;20412;-83
2022/06/16 01:05:28;;;;;;;4.23;3.93;;;26.20;50.00;;;;;;6112348;23;20432;-83
2022/06/16 01:07:55;;;;;;;4.07;3.67;;;26.20;50.00;;;;;;6113268;23;20453;-83
2022/06/16 01:10:21;;;;;;;4.23;3.93;;;26.20;50.00;;;;;;6114471;23;20142;-83
2022/06/16 01:15:54;;;;;;;3.77;3.47;;;26.30;50.10;;;;;;6114317;23;20358;-83
2022/06/16 01:18:38;;;;;;;4.17;3.87;;;26.20;50.00;;;;;;6114195;23;20369;-83
2022/06/16 01:21:07;;;;;;;3.87;3.57;;;26.20;50.00;;;;;;6113373;23;20409;-83
2022/06/16 01:24:11;;;;;;;4.30;3.90;;;26.20;50.00;;;;;;6113713;23;20445;-83
2022/06/16 01:27:01;;;;;;;3.77;3.47;;;26.30;50.00;;;;;;6114341;23;20381;-83
2022/06/16 01:30:07;;;;;;;4.70;4.30;;;26.20;50.00;;;;;;6113860;23;20385;-82
2022/06/16 01:32:45;;;;;;;4.30;3.90;;;26.30;50.10;;;;;;6100855;23;20433;-82
2022/06/16 01:35:14;;;;;;;5.20;4.20;;;26.20;50.10;;;;;;6114400;23;20354;-82
2022/06/16 01:37:52;;;;;;;4.93;4.53;;;26.20;50.10;;;;;;6114215;23;20412;-82
2022/06/16 01:40:37;;;;;;;5.13;3.70;;;26.20;50.00;;;;;;6115742;23;20377;-82
2022/06/16 01:43:08;;;;;;;4.90;4.50;;;26.30;50.00;;;;;;6115050;23;20417;-82
2022/06/16 01:46:06;;;;;;;4.30;3.90;;;26.20;50.00;;;;;;6113320;23;20389;-82
2022/06/16 01:48:34;;;;;;;4.50;4.20;;;26.20;50.00;;;;;;6113514;23;20421;-82
2022/06/16 01:51:13;;;;;;;5.30;4.33;;;26.20;50.00;;;;;;6113915;23;20389;-82
2022/06/16 01:54:26;;;;;;;4.37;4.07;;;26.20;50.00;;;;;;6114096;23;20373;-81
2022/06/16 01:57:01;;;;;;;4.70;4.30;;;26.30;50.00;;;;;;6084690;23;20397;-82
2022/06/16 01:59:38;;;;;;;4.47;4.13;;;26.20;49.90;;;;;;6085846;23;20474;-82
2022/06/16 02:02:08;;;;;;;4.27;3.87;;;26.20;49.90;;;;;;6061503;23;20411;-81
2022/06/16 02:04:57;;;;;;;4.47;4.07;;;26.20;49.90;;;;;;6060753;23;20421;-82
2022/06/16 02:07:37;;;;;;;4.23;3.93;;;26.30;50.00;;;;;;6061338;23;20434;-83
2022/06/16 02:10:19;;;;;;;4.10;3.80;;;26.20;50.00;;;;;;6061328;23;20374;-83
2022/06/16 02:12:56;;;;;;;4.47;4.17;;;26.20;49.90;;;;;;6061932;23;20453;-82
2022/06/16 02:15:51;;;;;;;3.60;3.30;;;26.20;49.90;;;;;;6060985;23;20379;-83
2022/06/16 02:18:23;;;;;;;4.47;4.07;;;26.20;49.90;;;;;;6084790;23;20374;-81
2022/06/16 02:21:14;;;;;;;3.93;3.63;;;26.20;49.90;;;;;;6085322;23;20395;-80
2022/06/16 02:23:41;;;;;;;4.70;4.10;;;26.20;49.90;;;;;;6084454;23;20378;-82
2022/06/16 02:26:07;;;;;;;4.33;3.93;;;26.20;49.90;;;;;;6085197;23;20507;-81
2022/06/16 02:28:45;;;;;;;3.80;3.50;;;26.20;49.90;;;;;;6113134;23;20421;-81
2022/06/16 02:31:45;;;;;;;4.53;4.23;;;26.20;49.90;;;;;;6115364;23;20384;-82
2022/06/16 02:34:11;;;;;;;4.17;3.87;;;26.30;50.00;;;;;;6115296;23;20350;-82
2022/06/16 02:37:03;;;;;;;4.23;3.87;;;26.20;49.90;;;;;;6115753;23;20437;-82
2022/06/16 02:39:41;;;;;;;4.00;3.70;;;26.20;49.90;;;;;;6085285;23;20929;-81
2022/06/16 02:42:26;;;;;;;4.70;3.90;;;26.20;49.90;;;;;;6084804;23;20411;-81
2022/06/16 02:45:07;;;;;;;3.80;3.50;;;26.20;50.00;;;;;;6084914;23;20374;-81
2022/06/16 02:47:57;;;;;;;3.70;3.37;;;26.20;49.90;;;;;;6061371;23;20414;-81
2022/06/16 02:50:28;;;;;;;3.60;3.30;;;26.20;50.00;;;;;;6086128;23;20422;-81
2022/06/16 02:53:26;;;;;;;3.67;3.37;;;26.20;49.90;;;;;;6060771;23;20438;-82
2022/06/16 02:55:58;;;;;;;4.00;3.70;;;26.20;49.90;;;;;;6062504;23;20383;-81
2022/06/16 02:58:25;;;;;;;4.33;3.93;;;26.20;49.90;;;;;;6084713;23;20444;-81
2022/06/16 03:00:54;;;;;;;4.80;3.30;;;26.20;49.90;;;;;;6082290;23;20379;-81
2022/06/16 03:03:27;;;;;;;3.87;3.57;;;26.20;49.90;;;;;;6086435;23;20386;-82
2022/06/16 03:05:57;;;;;;;4.10;3.73;;;26.20;49.80;;;;;;6086468;23;20391;-81
2022/06/16 03:08:26;;;;;;;3.87;3.40;;;26.20;49.80;;;;;;6058218;23;20457;-81
2022/06/16 03:10:53;;;;;;;3.87;3.57;;;26.20;49.80;;;;;;6055467;23;20383;-81
2022/06/16 03:13:24;;;;;;;3.90;3.50;;;26.20;49.70;;;;;;6055694;23;20789;-81
2022/06/16 03:15:52;;;;;;;4.80;3.43;;;26.20;49.70;;;;;;6087863;23;20433;-82
2022/06/16 03:18:20;;;;;;;3.87;3.57;;;26.20;49.60;;;;;;6111432;23;20394;-81
2022/06/16 03:20:46;;;;;;;4.73;4.23;;;26.20;49.60;;;;;;6111846;23;20764;-82
2022/06/16 03:23:11;;;;;;;3.80;3.50;;;26.20;49.60;;;;;;6109905;23;20462;-81
2022/06/16 03:25:38;;;;;;;4.40;4.00;;;26.20;49.60;;;;;;6111246;23;20157;-81
2022/06/16 03:28:04;;;;;;;4.20;3.83;;;26.20;49.60;;;;;;6109160;23;20265;-81
2022/06/16 03:30:30;;;;;;;4.20;3.80;;;26.20;49.70;;;;;;6108793;23;20409;-81
2022/06/16 03:32:56;;;;;;;3.60;3.30;;;26.20;49.70;;;;;;6110505;23;20376;-81
2022/06/16 03:35:22;;;;;;;5.10;4.60;;;26.20;49.70;;;;;;6108712;23;20389;-82
2022/06/16 03:37:47;;;;;;;4.50;4.00;;;26.20;49.70;;;;;;6110611;23;20591;-82
2022/06/16 03:40:13;;;;;;;3.93;3.63;;;26.20;49.60;;;;;;6111427;23;20149;-81
2022/06/16 03:42:41;;;;;;;3.77;3.47;;;26.20;49.60;;;;;;6110997;23;20157;-81
2022/06/16 03:45:08;;;;;;;4.13;3.83;;;26.20;49.70;;;;;;6108811;23;20437;-81
2022/06/16 03:47:33;;;;;;;4.10;3.70;;;26.20;49.70;;;;;;6108899;23;20897;-81
2022/06/16 03:49:59;;;;;;;3.90;3.60;;;26.20;49.70;;;;;;6109084;23;20382;-81
2022/06/16 03:52:25;;;;;;;4.40;3.50;;;26.20;49.60;;;;;;6110361;23;20205;-81
2022/06/16 03:54:51;;;;;;;3.60;3.30;;;26.20;49.60;;;;;;6110573;23;20158;-81
2022/06/16 03:57:18;;;;;;;4.00;3.60;;;26.20;49.50;;;;;;6109745;23;20378;-81
2022/06/16 03:59:44;;;;;;;4.00;3.70;;;26.20;49.60;;;;;;6109978;23;20378;-81
2022/06/16 04:02:09;;;;;;;4.00;3.33;;;26.20;49.60;;;;;;6109802;23;20413;-81
2022/06/16 04:04:35;;;;;;;3.43;3.00;;;26.20;49.60;;;;;;6124700;23;20393;-81
2022/06/16 04:07:01;;;;;;;4.10;3.70;;;26.20;49.60;;;;;;6113684;23;20624;-79
2022/06/16 04:09:27;;;;;;;4.07;3.77;;;26.20;49.60;;;;;;6138910;23;20369;-81
2022/06/16 04:11:53;;;;;;;4.70;4.30;;;26.20;49.60;;;;;;6140588;23;20452;-82
2022/06/16 04:14:19;;;;;;;4.20;3.90;;;26.20;49.60;;;;;;6114485;23;20416;-81
2022/06/16 04:16:51;;;;;;;3.80;3.50;;;26.20;49.60;;;;;;6114193;23;20585;-81
2022/06/16 04:19:21;;;;;;;3.93;3.63;;;26.20;49.60;;;;;;6113935;23;20141;-81
2022/06/16 04:21:48;;;;;;;3.70;3.40;;;26.20;49.60;;;;;;6139959;23;20372;-81
2022/06/16 04:24:15;;;;;;;4.20;3.90;;;26.20;49.70;;;;;;6114639;23;20424;-80
2022/06/16 04:26:42;;;;;;;4.40;3.87;;;26.20;49.60;;;;;;6141423;23;20384;-80
2022/06/16 04:29:09;;;;;;;3.27;3.07;;;26.20;49.70;;;;;;6113307;23;20381;-80
2022/06/16 04:31:35;;;;;;;3.80;3.50;;;26.20;49.60;;;;;;6139798;23;20411;-80
2022/06/16 04:34:01;;;;;;;4.30;3.67;;;26.20;49.60;;;;;;6139349;23;20725;-80
2022/06/16 04:36:28;;;;;;;3.67;3.37;;;26.20;49.60;;;;;;6139428;23;20373;-80
2022/06/16 04:38:54;;;;;;;4.60;4.07;;;26.20;49.70;;;;;;6112923;23;20396;-80
2022/06/16 04:41:22;;;;;;;4.27;3.57;;;26.20;49.70;;;;;;6112528;23;20400;-81
2022/06/16 04:43:48;;;;;;;4.30;3.90;;;26.20;49.60;;;;;;6139643;23;20380;-81
2022/06/16 04:46:15;;;;;;;3.60;3.30;;;26.20;49.60;;;;;;6114967;23;20392;-80
2022/06/16 04:48:41;;;;;;;3.90;3.30;;;26.20;49.60;;;;;;6115452;23;20452;-80
2022/06/16 04:51:08;;;;;;;4.07;3.73;;;26.20;49.60;;;;;;6141998;23;20369;-80
2022/06/16 04:53:34;;;;;;;4.93;3.50;;;26.20;50.20;;;;;;6118882;23;20385;-81
2022/06/16 04:56:02;;;;;;;4.37;3.97;;;26.20;49.60;;;;;;6118628;23;20377;-81
2022/06/16 04:58:29;;;;;;;3.87;3.50;;;26.20;49.60;;;;;;6118309;23;20201;-81
2022/06/16 05:00:56;;;;;;;4.00;3.67;;;26.30;49.70;;;;;;6144697;23;20400;-80
2022/06/16 05:03:25;;;;;;;4.40;4.00;;;26.20;49.70;;;;;;6118737;23;20385;-81
2022/06/16 05:05:52;;;;;;;3.60;3.30;;;26.20;49.60;;;;;;6143893;23;20396;-81
2022/06/16 05:08:19;;;;;;;4.63;4.23;;;26.20;49.70;;;;;;6141837;23;20471;-81
2022/06/16 05:10:50;;;;;;;3.40;3.10;;;26.30;49.80;;;;;;6116176;23;20385;-81
2022/06/16 05:13:17;;;;;;;4.27;3.87;;;26.20;49.60;;;;;;6142633;23;20376;-81
2022/06/16 05:15:43;;;;;;;4.03;3.63;;;26.20;49.60;;;;;;6116613;23;20440;-80
2022/06/16 05:18:12;;;;;;;4.47;4.07;;;26.20;49.70;;;;;;6141776;23;20388;-81
2022/06/16 05:20:42;;;;;;;4.03;3.73;;;26.20;49.70;;;;;;6114984;23;20444;-80
2022/06/16 05:23:12;;;;;;;4.47;4.07;;;26.30;49.70;;;;;;6142362;23;20412;-80
2022/06/16 05:25:40;;;;;;;4.10;3.80;;;26.30;49.70;;;;;;6141598;23;20380;-79
2022/06/16 05:28:06;;;;;;;3.70;3.40;;;26.20;49.60;;;;;;6115888;23;20424;-79
2022/06/16 05:30:33;;;;;;;4.33;3.70;;;26.30;49.80;;;;;;6142758;23;20405;-80
2022/06/16 05:32:58;;;;;;;4.57;4.23;;;26.30;49.70;;;;;;6143256;23;20373;-80
2022/06/16 05:35:25;;;;;;;4.50;4.20;;;26.30;49.70;;;;;;6117875;23;20389;-80
2022/06/16 05:37:50;;;;;;;4.67;4.17;;;26.30;49.80;;;;;;6143853;23;20153;-79
2022/06/16 05:40:16;;;;;;;4.40;4.10;;;26.20;49.70;;;;;;6117884;23;20443;-80
2022/06/16 05:42:42;;;;;;;4.20;3.80;;;26.30;49.80;;;;;;6117647;23;20157;-80
2022/06/16 05:45:10;;;;;;;3.97;3.60;;;26.30;49.80;;;;;;6117647;23;20165;-80
2022/06/16 05:47:37;;;;;;;4.60;4.20;;;26.30;49.80;;;;;;6143470;23;20231;-80
2022/06/16 05:50:04;;;;;;;4.60;4.20;;;26.30;49.80;;;;;;6143337;23;20393;-80
2022/06/16 05:52:29;;;;;;;3.90;3.60;;;26.30;49.70;;;;;;6117221;23;20409;-80
2022/06/16 05:54:56;;;;;;;4.00;3.70;;;26.30;49.70;;;;;;6143555;23;20380;-80
2022/06/16 05:57:21;;;;;;;4.40;4.00;;;26.30;49.80;;;;;;6143750;23;20229;-80
2022/06/16 05:59:47;;;;;;;4.53;3.87;;;26.30;49.70;;;;;;6117411;23;20412;-80
2022/06/16 06:02:16;;;;;;;3.93;3.53;;;26.30;49.70;;;;;;6117397;23;20164;-80
2022/06/16 06:04:42;;;;;;;4.23;3.80;;;26.30;49.70;;;;;;6143318;23;20164;-80
2022/06/16 06:07:08;;;;;;;4.10;3.37;;;26.30;49.70;;;;;;6143413;23;20405;-80
2022/06/16 06:17:47;;;;;;;4.07;3.63;;;26.30;49.60;;;;;;6143344;23;20364;-80
2022/06/16 06:20:13;;;;;;;4.07;3.77;;;26.30;50.20;;;;;;6117702;23;20479;-81
2022/06/16 06:22:39;;;;;;;4.20;3.87;;;26.30;49.60;;;;;;6117306;23;20161;-80
2022/06/16 06:25:05;;;;;;;4.37;3.87;;;26.30;49.60;;;;;;6117454;23;20155;-80
2022/06/16 06:27:33;;;;;;;4.33;3.93;;;26.30;49.60;;;;;;6118013;23;20212;-80
2022/06/16 06:30:02;;;;;;;4.67;4.27;;;26.30;49.60;;;;;;6143066;23;20901;-80
2022/06/16 06:32:30;;;;;;;3.70;3.40;;;26.30;49.60;;;;;;6143413;23;20384;-80
2022/06/16 06:34:56;;;;;;;3.90;3.60;;;26.40;49.60;;;;;;6143045;23;20441;-80
2022/06/16 06:37:24;;;;;;;3.40;3.10;;;26.30;49.60;;;;;;6117097;23;20397;-81
2022/06/16 06:39:51;;;;;;;4.20;3.80;;;26.40;49.60;;;;;;6142496;23;20149;-80
2022/06/16 06:42:17;;;;;;;3.57;3.27;;;26.40;49.60;;;;;;6116821;23;20389;-80
2022/06/16 06:44:44;;;;;;;3.87;3.57;;;26.40;49.60;;;;;;6142501;23;20908;-80
2022/06/16 06:47:23;;;;;;;3.67;3.37;;;26.40;49.60;;;;;;6117408;23;20440;-80
2022/06/16 06:49:49;;;;;;;4.53;4.13;;;26.40;49.60;;;;;;6116959;23;20408;-80
2022/06/16 06:52:15;;;;;;;4.50;4.10;;;26.40;49.60;;;;;;6117747;23;20377;-81
2022/06/16 06:54:43;;;;;;;3.37;3.13;;;26.40;49.60;;;;;;6117576;23;20742;-81
2022/06/16 06:57:20;;;;;;;4.27;3.87;;;26.40;49.60;;;;;;6117400;23;20396;-81
2022/06/16 06:59:46;;;;;;;3.80;3.53;;;26.40;49.60;;;;;;6116843;23;20385;-81
2022/06/16 07:02:13;;;;;;;4.17;3.87;;;26.40;49.60;;;;;;6142266;23;20381;-81
2022/06/16 07:04:40;;;;;;;5.30;3.93;;;26.40;49.60;;;;;;6111175;23;20179;-80
2022/06/16 07:07:06;;;;;;;4.10;3.77;;;26.40;49.60;;;;;;6112358;23;20418;-80
2022/06/16 07:09:32;;;;;;;4.17;3.50;;;26.40;49.60;;;;;;6111963;23;20369;-79
2022/06/16 07:11:57;;;;;;;4.13;3.73;;;26.40;49.60;;;;;;6112241;23;20386;-81
2022/06/16 07:14:23;;;;;;;3.60;3.30;;;26.40;49.60;;;;;;6114329;23;20146;-81
2022/06/16 07:16:50;;;;;;;4.03;3.67;;;26.40;49.60;;;;;;6112856;23;20154;-81
2022/06/16 07:19:17;;;;;;;4.40;4.00;;;26.40;49.60;;;;;;6113192;23;20162;-81
2022/06/16 07:21:43;;;;;;;4.07;3.63;;;26.40;49.60;;;;;;6114117;23;20386;-81
2022/06/16 07:24:09;;;;;;;4.50;4.10;;;26.40;49.60;;;;;;6115305;23;20370;-81
2022/06/16 07:26:34;;;;;;;3.80;3.50;;;26.40;49.60;;;;;;6114715;23;20454;-80
2022/06/16 07:29:00;;;;;;;4.17;3.80;;;26.40;49.60;;;;;;6112546;23;20244;-80
2022/06/16 07:31:27;;;;;;;3.80;3.50;;;26.40;49.60;;;;;;6113290;23;20599;-80
2022/06/16 07:33:56;;;;;;;4.13;3.73;;;26.40;49.60;;;;;;6113469;23;20146;-80
2022/06/16 07:36:22;;;;;;;4.83;3.70;;;26.40;49.60;;;;;;6112656;23;20381;-80
2022/06/16 07:38:50;;;;;;;3.77;3.47;;;26.40;49.70;;;;;;6113758;23;20398;-80
2022/06/16 07:41:32;;;;;;;4.33;3.93;;;26.50;49.70;;;;;;6115537;23;20378;-80
2022/06/16 07:43:58;;;;;;;4.13;3.50;;;26.40;49.70;;;;;;6116620;23;20366;-80
2022/06/16 07:46:25;;;;;;;3.90;3.60;;;26.40;49.70;;;;;;6115737;23;20396;-80
2022/06/16 07:48:51;;;;;;;3.57;2.90;;;26.40;49.80;;;;;;6112599;23;20425;-80
2022/06/16 07:51:18;;;;;;;3.73;3.43;;;26.50;49.80;;;;;;6113350;23;20520;-80
2022/06/16 07:53:44;;;;;;;3.70;3.40;;;26.50;49.80;;;;;;6113353;23;20382;-80
2022/06/16 07:56:10;;;;;;;3.83;3.53;;;26.50;49.80;;;;;;6113948;23;20461;-80
2022/06/16 07:58:36;;;;;;;3.53;3.23;;;26.50;49.90;;;;;;6117353;23;20178;-81
2022/06/16 08:01:04;;;;;;;3.53;3.23;;;26.50;49.90;;;;;;6117181;23;20374;-81
2022/06/16 08:03:30;;;;;;;3.60;3.30;;;26.50;49.90;;;;;;6116181;23;20158;-81
2022/06/16 08:05:57;;;;;;;3.10;2.90;;;26.50;49.90;;;;;;6145647;23;20399;-81
2022/06/16 08:08:25;;;;;;;3.87;3.47;;;26.50;49.90;;;;;;6145368;23;20175;-81
2022/06/16 08:10:52;;;;;;;4.17;3.77;;;26.60;50.00;;;;;;6118850;23;20416;-81
2022/06/16 08:13:19;;;;;;;3.10;2.80;;;26.60;50.00;;;;;;6147302;23;20369;-80
2022/06/16 08:15:46;;;;;;;3.20;2.90;;;26.60;50.00;;;;;;6121102;23;20389;-81
2022/06/16 08:18:14;;;;;;;3.53;2.80;;;26.60;50.00;;;;;;6120764;23;20391;-81
2022/06/16 08:20:41;;;;;;;3.40;3.10;;;26.60;50.00;;;;;;6147796;23;20377;-80
2022/06/16 08:23:09;;;;;;;3.03;2.80;;;26.60;50.00;;;;;;6120615;23;20392;-80
2022/06/16 08:25:34;;;;;;;3.43;3.00;;;26.60;50.00;;;;;;6143122;23;20376;-79
2022/06/16 08:28:05;;;;;;;3.40;3.10;;;26.60;50.00;;;;;;6149753;23;20432;-80
2022/06/16 08:30:32;;;;;;;2.97;2.67;;;26.60;50.00;;;;;;6122991;23;20141;-81
2022/06/16 08:32:59;;;;;;;3.17;2.90;;;26.60;50.00;;;;;;6121986;23;20392;-81
2022/06/16 08:35:26;;;;;;;3.60;3.30;;;26.60;50.00;;;;;;6146368;23;20376;-82
2022/06/16 08:37:55;;;;;;;2.90;2.70;;;26.60;50.00;;;;;;6147583;23;20377;-82
2022/06/16 08:40:21;;;;;;;3.17;2.83;;;26.60;50.00;;;;;;6146952;23;20407;-82
2022/06/16 08:42:50;;;;;;;3.13;2.90;;;26.70;50.10;;;;;;6121988;23;20393;-82
2022/06/16 08:45:35;;;;;;;3.27;3.00;;;26.70;50.10;;;;;;6147052;23;20362;-82
2022/06/16 08:48:38;;;;;;;2.73;2.40;;;26.70;50.10;;;;;;6147937;23;20404;-82
2022/06/16 08:51:33;;;;;;;2.60;2.40;;;26.70;50.10;;;;;;6121329;23;20372;-83
2022/06/16 08:54:36;;;;;;;3.70;3.13;;;26.70;50.20;;;;;;6146845;23;20358;-83
2022/06/16 08:57:39;;;;;;;3.27;2.97;;;26.70;50.20;;;;;;6146908;23;20376;-83
2022/06/16 09:00:16;;;;;;;2.93;2.73;;;26.70;50.20;;;;;;6120810;23;20369;-83
2022/06/16 09:02:44;;;;;;;3.20;2.90;;;26.70;50.30;;;;;;6120347;23;20385;-82
2022/06/16 09:05:22;;;;;;;2.80;2.60;;;26.70;50.30;;;;;;6115241;23;20481;-80
2022/06/16 09:07:54;;;;;;;3.57;2.87;;;26.60;50.30;;;;;;6115459;23;20441;-80
2022/06/16 09:11:02;;;;;;;2.53;2.33;;;26.70;50.30;;;;;;6116141;23;20963;-82
2022/06/16 09:13:48;;;;;;;2.90;2.70;;;26.70;50.30;;;;;;6109194;23;20405;-81
2022/06/16 09:16:28;;;;;;;2.87;2.67;;;26.70;50.30;;;;;;6117055;23;20438;-81
2022/06/16 09:19:07;;;;;;;3.17;2.87;;;26.70;50.30;;;;;;6115237;23;20389;-81
2022/06/16 09:22:01;;;;;;;2.73;2.30;;;26.70;50.30;;;;;;6115588;23;20382;-81
2022/06/16 09:24:27;;;;;;;4.17;3.30;;;26.70;50.30;;;;;;6116729;23;20361;-82
2022/06/16 09:27:00;;;;;;;3.00;2.80;;;26.70;50.30;;;;;;6114944;23;20401;-81
2022/06/16 09:29:42;;;;;;;2.40;2.20;;;26.80;50.90;;;;;;6115311;23;20146;-82
2022/06/16 09:32:30;;;;;;;2.90;2.70;;;26.80;50.40;;;;;;6114761;23;20370;-82
2022/06/16 09:35:18;;;;;;;2.97;2.67;;;26.80;50.40;;;;;;6114855;23;20378;-81
2022/06/16 09:38:08;;;;;;;3.30;3.00;;;26.80;50.40;;;;;;6115951;23;20435;-82
2022/06/16 09:40:46;;;;;;;2.80;2.60;;;26.80;50.40;;;;;;6114803;23;20385;-82
2022/06/16 09:43:30;;;;;;;2.87;2.50;;;26.80;50.40;;;;;;6116144;23;20489;-81
2022/06/16 09:46:11;;;;;;;2.90;2.70;;;26.80;50.40;;;;;;6110930;23;20386;-81
2022/06/16 09:48:47;;;;;;;2.57;2.37;;;26.80;50.40;;;;;;6116409;23;20393;-82
2022/06/16 09:51:24;;;;;;;3.03;2.80;;;26.80;50.40;;;;;;6115010;23;20374;-82
2022/06/16 09:53:57;;;;;;;2.83;2.53;;;26.80;50.40;;;;;;6117746;23;20358;-81
2022/06/16 09:57:11;;;;;;;2.80;2.60;;;26.90;50.50;;;;;;6118198;23;20365;-81
2022/06/16 10:00:21;;;;;;;2.43;2.23;;;26.90;50.40;;;;;;6129408;23;20377;-81
2022/06/16 10:02:58;;;;;;;2.60;2.40;;;26.90;50.40;;;;;;6061955;23;20381;-81
2022/06/16 10:05:41;;;;;;;2.57;2.37;;;26.90;50.50;;;;;;6059755;23;20464;-81
2022/06/16 10:08:22;;;;;;;3.40;2.40;;;26.90;50.50;;;;;;6060071;23;20415;-81
2022/06/16 10:10:59;;;;;;;3.03;2.63;;;26.90;50.50;;;;;;6084947;23;20494;-80
2022/06/16 10:14:15;;;;;;;2.40;2.20;;;26.90;50.50;;;;;;6060793;23;20465;-81
2022/06/16 10:16:58;;;;;;;2.60;2.40;;;26.90;50.50;;;;;;6072079;23;20469;-80
2022/06/16 10:19:28;;;;;;;2.53;2.33;;;26.90;50.50;;;;;;6062252;23;20378;-80
2022/06/16 10:21:54;;;;;;;2.60;2.40;;;26.90;50.50;;;;;;6062692;23;20396;-79
2022/06/16 10:24:25;;;;;;;2.60;2.40;;;26.90;50.50;;;;;;6086825;23;20407;-80
2022/06/16 10:26:51;;;;;;;2.70;2.50;;;26.90;50.50;;;;;;6061291;23;20383;-81
2022/06/16 10:29:32;;;;;;;2.37;2.17;;;26.90;50.50;;;;;;6064629;23;20459;-79
2022/06/16 10:31:59;;;;;;;2.40;2.20;;;26.90;50.50;;;;;;6087012;23;20359;-81
2022/06/16 10:34:27;;;;;;;2.37;2.17;;;26.90;50.50;;;;;;6136465;23;20382;-81
2022/06/16 10:37:06;;;;;;;2.53;2.33;;;27.00;50.50;;;;;;6118074;23;20393;-80
2022/06/16 10:40:04;;;;;;;2.70;2.50;;;27.00;50.50;;;;;;6116854;23;20401;-80
2022/06/16 10:42:40;;;;;;;2.10;2.00;;;27.00;50.50;;;;;;6127558;23;20382;-80
2022/06/16 10:45:05;;;;;;;2.40;2.20;;;27.00;51.10;;;;;;6117215;23;20366;-80
2022/06/16 10:47:39;;;;;;;2.63;2.43;;;27.00;50.60;;;;;;6119375;23;20444;-80
2022/06/16 10:50:07;;;;;;;2.87;2.30;;;27.00;50.60;;;;;;6120044;23;20130;-81
2022/06/16 10:52:39;;;;;;;2.33;2.13;;;27.00;50.60;;;;;;6118680;23;20382;-81
2022/06/16 10:55:36;;;;;;;2.10;1.93;;;27.00;50.60;;;;;;6115171;23;20374;-80
2022/06/16 10:58:16;;;;;;;2.83;2.00;;;27.00;50.50;;;;;;6087967;23;20386;-82
2022/06/16 11:00:42;;;;;;;2.43;2.23;;;27.00;50.60;;;;;;6065529;23;20415;-82
2022/06/16 11:03:11;;;;;;;2.57;2.37;;;27.00;50.50;;;;;;6058850;23;20395;-82
2022/06/16 11:05:58;;;;;;;3.10;2.53;;;27.00;50.50;;;;;;6083692;23;20170;-82
2022/06/16 11:08:32;;;;;;;4.97;2.87;;;27.10;50.50;;;;;;6063033;23;20437;-82
2022/06/16 11:11:00;;;;;;;5.00;3.13;;;27.00;50.40;;;;;;6061870;23;20377;-82
2022/06/16 11:13:38;;;;;;;2.60;2.40;;;27.00;50.40;;;;;;6061373;23;20438;-82
2022/06/16 11:16:21;;;;;;;3.40;2.90;;;27.00;50.40;;;;;;6086456;23;20374;-82
2022/06/16 11:18:48;;;;;;;3.53;3.30;;;27.00;50.30;;;;;;6061715;23;20382;-82
2022/06/16 11:21:22;;;;;;;3.83;3.30;;;27.00;50.70;;;;;;6061129;23;20390;-82
2022/06/16 11:23:53;;;;;;;3.50;3.20;;;27.00;50.20;;;;;;6061375;23;20470;-82
2022/06/16 11:26:29;;;;;;;4.00;3.37;;;27.00;50.20;;;;;;6086172;23;20453;-82
2022/06/16 11:29:10;;;;;;;3.20;3.00;;;27.00;50.20;;;;;;6061899;23;20434;-82
2022/06/16 11:31:47;;;;;;;2.90;2.70;;;27.10;50.20;;;;;;6085903;23;20363;-82
2022/06/16 11:34:25;;;;;;;3.70;3.13;;;27.10;50.20;;;;;;6074562;23;20390;-82
2022/06/16 11:37:09;;;;;;;3.50;3.27;;;27.00;50.10;;;;;;6115889;23;20445;-82
2022/06/16 11:39:53;;;;;;;3.90;3.60;;;27.00;50.10;;;;;;6114908;23;20389;-82
2022/06/16 11:42:37;;;;;;;6.20;3.23;;;27.00;50.10;;;;;;6115884;23;20388;-82
2022/06/16 11:45:25;;;;;;;3.67;3.37;;;27.00;50.10;;;;;;6117540;23;20381;-82
2022/06/16 11:48:03;;;;;;;3.53;3.27;;;27.00;50.10;;;;;;6118046;23;20448;-82
2022/06/16 11:51:06;;;;;;;4.10;3.70;;;26.90;50.10;;;;;;6116157;23;20366;-83
2022/06/16 11:53:42;;;;;;;3.67;3.33;;;26.90;50.10;;;;;;6118605;23;20384;-82
2022/06/16 11:56:42;;;;;;;3.47;3.17;;;27.00;50.20;;;;;;6117958;23;20357;-82
2022/06/16 11:59:41;;;;;;;4.23;3.87;;;27.00;50.10;;;;;;6105084;23;20394;-82
2022/06/16 12:02:27;;;;;;;3.80;3.50;;;27.00;50.10;;;;;;6117430;23;20401;-82
2022/06/16 12:05:29;;;;;;;3.80;3.50;;;27.00;50.10;;;;;;6085182;23;20450;-81
2022/06/16 12:08:25;;;;;;;3.37;3.07;;;27.00;50.10;;;;;;6085303;23;20418;-82
2022/06/16 12:11:07;;;;;;;3.90;3.60;;;27.00;50.10;;;;;;6085100;23;20460;-81
2022/06/16 12:14:02;;;;;;;3.50;3.30;;;26.90;50.10;;;;;;6085557;23;20363;-81
2022/06/16 12:16:51;;;;;;;3.63;3.27;;;26.90;50.10;;;;;;6061200;23;20379;-81
2022/06/16 12:19:29;;;;;;;3.63;3.27;;;26.90;50.10;;;;;;6085659;23;20379;-82
2022/06/16 12:22:06;;;;;;;3.60;3.17;;;26.90;50.10;;;;;;6085273;23;20405;-80
2022/06/16 12:24:52;;;;;;;3.60;3.30;;;26.90;50.10;;;;;;6085568;23;20355;-80
2022/06/16 12:27:26;;;;;;;4.07;3.60;;;27.00;50.70;;;;;;6027635;23;20412;-81
2022/06/16 12:30:01;;;;;;;4.20;3.80;;;26.90;50.00;;;;;;6028851;23;20388;-81
2022/06/16 12:33:06;;;;;;;4.03;3.60;;;26.90;50.00;;;;;;6005250;23;20412;-81
2022/06/16 12:35:59;;;;;;;3.93;3.63;;;26.90;50.00;;;;;;5971982;24;20473;-81
2022/06/16 12:38:34;;;;;;;4.37;3.70;;;26.90;50.60;;;;;;5949814;24;20473;-82
2022/06/16 12:41:13;;;;;;;4.70;4.07;;;26.90;50.00;;;;;;5949504;24;20401;-81
2022/06/16 12:43:48;;;;;;;6.93;3.73;;;26.90;50.00;;;;;;5972369;24;20382;-81
2022/06/16 12:46:21;;;;;;;3.87;3.53;;;26.90;50.00;;;;;;5948309;24;20417;-81
2022/06/16 12:49:08;;;;;;;3.90;3.60;;;26.90;50.00;;;;;;5948903;24;20496;-82
2022/06/16 12:51:44;;;;;;;3.90;3.47;;;27.00;50.50;;;;;;5949706;24;20488;-81
2022/06/16 12:54:21;;;;;;;3.40;3.10;;;26.90;49.90;;;;;;5949881;24;20405;-83
2022/06/16 12:56:56;;;;;;;3.03;2.80;;;26.90;49.90;;;;;;5973188;24;20364;-82
2022/06/16 12:59:30;;;;;;;3.93;3.63;;;27.00;49.90;;;;;;5973502;24;20429;-82
2022/06/16 13:02:00;;;;;;;5.87;3.50;;;26.90;49.80;;;;;;5973183;24;20378;-82
2022/06/16 13:04:30;;;;;;;3.70;3.40;;;27.00;49.90;;;;;;6003430;23;20412;-82
2022/06/16 13:07:00;;;;;;;3.30;3.00;;;27.00;49.90;;;;;;6005119;23;20389;-82
2022/06/16 13:09:25;;;;;;;3.30;3.00;;;27.00;49.80;;;;;;5982048;23;20392;-81
2022/06/16 13:12:00;;;;;;;3.20;2.80;;;27.00;49.80;;;;;;6025884;23;20401;-82
2022/06/16 13:14:36;;;;;;;4.10;3.20;;;27.00;49.80;;;;;;6116899;23;20405;-82
2022/06/16 13:17:07;;;;;;;5.37;2.87;;;27.00;49.80;;;;;;6116208;23;20388;-82
2022/06/16 13:19:46;;;;;;;3.50;3.20;;;27.00;49.80;;;;;;6116708;23;20405;-82
2022/06/16 13:22:25;;;;;;;3.90;3.33;;;27.00;49.70;;;;;;6118537;23;20349;-82
2022/06/16 13:24:58;;;;;;;3.80;3.50;;;27.00;49.80;;;;;;6117074;23;20358;-82
2022/06/16 13:27:40;;;;;;;3.40;3.10;;;27.00;49.70;;;;;;6117102;23;20429;-82
2022/06/16 13:30:06;;;;;;;2.97;2.70;;;27.00;49.80;;;;;;6116952;23;20362;-82
2022/06/16 13:32:41;;;;;;;3.20;2.87;;;27.00;49.80;;;;;;6117178;23;20442;-82